Portada
METAR-TAF:

METAR-TAF

Aeropuertos :

Aeropuerto de Koné

Koné, Nueva Caledonia

latitud: 21-03-12S, longitud: 164-50-18E, altitud: 7 m

METAR: falta

Hora: 03:56 (16:56 UTC)

Pronóstico

El informe se hizo hace 11 horas y 56 minutos, a las 05:00 UTC
Pronóstico válido del 27 a las 06 UTC al 28 a las 06 UTC
Viento 2 kt con dirección variable
Visibilidad 10 km o más
Nubes dispersas a una altura de 4000 ft

TAF: NWWD 270500Z 2706/2806 VRB02KT 9999 SCT040

Observaciones y pronósticos meteorológicos de más de 4000 aeropuertos (mensajes METAR y TAF).

Los puntos amarillos y rojos representan las estaciones disponibles.

Ponga el ratón en el punto deseado para ver el nombre de la estación.

Haga clic para ver las observaciones y los pronósticos meteorológicos.

Para cambiar el mapa : haga clic en los botones verdes con una cruz de color negro para hacer un zoom, en el botón verde con un guión para alejar o en las flechas verdes para mapas adyacentes.


METAR-TAF: